Time;durP1;ratioP1;P1;durP2;ratioP2;P2;SDS_P1;SDS_P2;PMS_P1;PMS_P2;Temp;Humidity;BMP_temperature;BMP_pressure;BME280_temperature;BME280_humidity;BME280_pressure;Samples;Min_cycle;Max_cycle;Signal;HPM_P1;HPM_P2
2021/12/20 00:00:42;;;;;;;11.02;2.33;;;;;;;6.16;100.00;103027.69;5057891;28;20035;-78
2021/12/20 00:03:08;;;;;;;7.55;2.40;;;;;;;6.12;100.00;103016.13;5073830;28;20036;-77
2021/12/20 00:05:38;;;;;;;11.85;2.58;;;;;;;6.13;100.00;103006.56;5061157;28;20028;-78
2021/12/20 00:08:04;;;;;;;8.70;2.25;;;;;;;6.12;100.00;103000.44;5068113;28;20032;-78
2021/12/20 00:10:29;;;;;;;13.88;2.25;;;;;;;6.12;100.00;103009.97;5075109;28;20078;-78
2021/12/20 00:12:55;;;;;;;10.85;1.98;;;;;;;6.12;100.00;103008.28;5073841;28;20503;-77
2021/12/20 00:15:20;;;;;;;15.60;2.50;;;;;;;6.12;100.00;103009.97;5066443;28;20594;-78
2021/12/20 00:17:46;;;;;;;13.57;2.25;;;;;;;6.13;100.00;103001.34;5065936;28;20392;-78
2021/12/20 00:20:13;;;;;;;22.77;3.05;;;;;;;6.12;100.00;103000.44;5068744;28;20029;-78
2021/12/20 00:22:40;;;;;;;12.48;1.98;;;;;;;6.11;100.00;103002.97;5047029;28;20045;-78
2021/12/20 00:25:07;;;;;;;17.25;1.77;;;;;;;6.10;100.00;103009.88;5064030;28;20033;-78
2021/12/20 00:27:33;;;;;;;20.08;2.90;;;;;;;6.09;100.00;103005.47;5054048;28;20051;-77
2021/12/20 00:29:58;;;;;;;23.63;3.53;;;;;;;6.11;100.00;103002.97;5073239;28;20042;-78
2021/12/20 00:32:24;;;;;;;25.92;2.35;;;;;;;6.08;100.00;102999.31;5062425;28;20038;-77
2021/12/20 00:34:50;;;;;;;18.70;2.72;;;;;;;6.07;100.00;102997.50;5054072;28;20016;-76
2021/12/20 00:42:44;;;;;;;20.97;2.73;;;;;;;6.04;100.00;102978.09;5098792;28;19922;-77
2021/12/20 00:45:12;;;;;;;22.10;2.10;;;;;;;6.04;100.00;102979.00;5113186;28;20077;-78
2021/12/20 00:47:38;;;;;;;24.08;2.55;;;;;;;6.03;100.00;102978.88;5108746;28;20044;-77
2021/12/20 00:50:05;;;;;;;15.43;2.45;;;;;;;6.04;100.00;102980.72;5100442;28;20077;-78
2021/12/20 00:52:31;;;;;;;26.60;2.72;;;;;;;6.03;100.00;102971.94;5097575;28;20103;-77
2021/12/20 00:54:57;;;;;;;23.20;2.40;;;;;;;6.02;100.00;102983.22;5101120;28;20054;-77
2021/12/20 00:57:22;;;;;;;24.40;3.63;;;;;;;6.01;100.00;102964.78;5095765;28;20031;-77
2021/12/20 00:59:48;;;;;;;21.02;2.75;;;;;;;5.98;100.00;102968.13;5095406;28;20096;-77
2021/12/20 01:02:14;;;;;;;22.20;3.78;;;;;;;5.98;100.00;102965.53;5086317;28;20028;-77
2021/12/20 01:04:40;;;;;;;19.90;2.50;;;;;;;5.97;100.00;102961.03;5086102;28;20039;-77
2021/12/20 01:07:05;;;;;;;27.20;3.33;;;;;;;5.96;100.00;102974.00;5084270;28;20031;-77
2021/12/20 01:09:31;;;;;;;26.60;3.38;;;;;;;5.95;100.00;102973.09;5084209;28;20032;-78
2021/12/20 01:12:03;;;;;;;25.20;3.83;;;;;;;5.95;100.00;102978.31;5099494;28;20100;-77
2021/12/20 01:14:31;;;;;;;23.75;3.35;;;;;;;5.93;100.00;102982.53;5105128;28;20023;-76
2021/12/20 01:17:03;;;;;;;19.98;2.55;;;;;;;5.91;100.00;102981.50;5111027;28;20042;-77
2021/12/20 01:19:28;;;;;;;18.02;1.83;;;;;;;5.89;100.00;102970.97;5118378;28;20038;-78
2021/12/20 01:21:54;;;;;;;23.10;2.30;;;;;;;5.89;100.00;102967.44;5115701;28;20413;-77
2021/12/20 01:24:20;;;;;;;23.25;3.00;;;;;;;5.88;100.00;102974.34;5116329;28;20028;-77
2021/12/20 01:26:46;;;;;;;21.83;2.35;;;;;;;5.87;100.00;102966.41;5100511;28;20483;-78
2021/12/20 01:29:12;;;;;;;24.98;3.28;;;;;;;5.86;100.00;102965.53;5099718;28;20035;-78
2021/12/20 01:31:38;;;;;;;19.75;2.42;;;;;;;5.86;100.00;102964.59;5080115;28;20035;-76
2021/12/20 01:34:03;;;;;;;18.23;3.25;;;;;;;5.85;100.00;102966.31;5095803;28;20073;-77
2021/12/20 01:36:29;;;;;;;21.20;2.80;;;;;;;5.86;100.00;102964.59;5100435;28;20127;-78
2021/12/20 01:38:54;;;;;;;15.07;2.20;;;;;;;5.86;100.00;102972.44;5114870;28;20135;-79
2021/12/20 01:41:20;;;;;;;23.15;3.38;;;;;;;5.85;100.00;102975.88;5089016;28;20016;-78
2021/12/20 01:43:45;;;;;;;21.88;3.85;;;;;;;5.82;100.00;102967.78;5119439;28;20031;-78
2021/12/20 01:46:11;;;;;;;14.95;2.45;;;;;;;5.80;100.00;102974.63;5109544;28;20148;-77
2021/12/20 01:48:39;;;;;;;24.25;3.25;;;;;;;5.80;100.00;102969.41;5117922;28;20394;-78
2021/12/20 01:53:35;;;;;;;22.48;4.00;;;;;;;5.77;100.00;102969.19;5110281;28;20043;-78
2021/12/20 01:56:01;;;;;;;18.58;3.20;;;;;;;5.78;100.00;102965.78;5113303;28;20475;-78
2021/12/20 01:58:29;;;;;;;24.23;3.85;;;;;;;5.78;100.00;102968.38;5092960;28;20032;-78
2021/12/20 02:03:41;;;;;;;26.33;3.80;;;;;;;5.77;100.00;102980.53;5105477;28;20042;-78
2021/12/20 02:06:13;;;;;;;15.45;2.53;;;;;;;5.77;100.00;102966.59;5081255;28;20024;-78
2021/12/20 02:08:40;;;;;;;21.98;4.13;;;;;;;5.77;100.00;102969.19;5087510;28;20047;-78
2021/12/20 02:11:09;;;;;;;21.08;3.00;;;;;;;5.77;100.00;102964.88;5103527;28;20030;-77
2021/12/20 02:13:37;;;;;;;31.20;3.58;;;;;;;5.78;100.00;102958.84;5113614;28;20034;-78
2021/12/20 02:16:03;;;;;;;23.65;2.30;;;;;;;5.78;100.00;102953.63;5094232;28;20035;-78
2021/12/20 02:18:31;;;;;;;13.15;2.30;;;;;;;5.77;100.00;102967.47;5093498;28;20020;-77
2021/12/20 02:20:58;;;;;;;30.15;3.08;;;;;;;5.76;100.00;102959.53;5096036;28;20039;-78
2021/12/20 02:23:26;;;;;;;20.52;2.60;;;;;;;5.74;100.00;102965.56;5081133;28;20028;-77
2021/12/20 02:25:52;;;;;;;22.52;2.80;;;;;;;5.74;100.00;102956.84;5100610;28;20093;-78
2021/12/20 02:28:21;;;;;;;23.92;2.92;;;;;;;5.72;100.00;102955.81;5089109;28;20020;-77
2021/12/20 02:36:56;;;;;;;25.08;3.83;;;;;;;5.71;100.00;102952.28;5095862;28;20076;-75
2021/12/20 02:39:06;;;;;;;29.60;3.47;;;;;;;5.71;100.00;102957.50;5108572;28;20124;-78
2021/12/20 02:41:33;;;;;;;17.55;4.35;;;;;;;5.71;100.00;102949.69;5079413;28;20056;-78
2021/12/20 02:44:05;;;;;;;22.65;3.13;;;;;;;5.72;100.00;102956.72;5088323;28;20035;-77
2021/12/20 02:49:09;;;;;;;22.98;3.38;;;;;;;5.71;100.00;102949.69;5101523;28;20050;-77
2021/12/20 02:51:38;;;;;;;24.73;3.42;;;;;;;5.72;100.00;102950.56;5111653;28;20104;-77
2021/12/20 02:54:06;;;;;;;15.60;2.55;;;;;;;5.72;100.00;102946.28;5109289;28;20030;-76
2021/12/20 02:56:33;;;;;;;15.40;2.22;;;;;;;5.70;100.00;102947.84;5105637;28;20123;-78
2021/12/20 02:58:59;;;;;;;23.17;4.20;;;;;;;5.71;100.00;102949.69;5083256;28;20050;-78
2021/12/20 03:01:25;;;;;;;33.40;3.55;;;;;;;5.71;100.00;102944.47;5100484;28;20035;-79
2021/12/20 03:03:53;;;;;;;24.85;2.85;;;;;;;5.69;100.00;102940.81;5112069;28;20383;-78
2021/12/20 03:06:45;;;;;;;22.95;3.17;;;;;;;5.67;100.00;102931.06;5112202;28;20058;-77
2021/12/20 03:09:15;;;;;;;23.27;2.97;;;;;;;5.68;100.00;102943.31;5089472;28;20027;-77
2021/12/20 03:11:42;;;;;;;18.67;2.63;;;;;;;5.69;100.00;102943.44;5101084;28;20020;-78
2021/12/20 03:14:18;;;;;;;19.38;3.13;;;;;;;5.67;100.00;102942.44;5087797;28;20398;-77
2021/12/20 03:16:45;;;;;;;21.15;2.40;;;;;;;5.69;100.00;102943.44;5091933;28;20023;-77
2021/12/20 03:19:10;;;;;;;20.83;3.05;;;;;;;5.66;100.00;102938.00;5112634;28;20042;-77
2021/12/20 03:21:36;;;;;;;16.45;2.63;;;;;;;5.66;100.00;102945.84;5095466;28;20024;-77
2021/12/20 03:24:03;;;;;;;21.48;2.83;;;;;;;5.67;100.00;102941.50;5091262;28;20032;-77
2021/12/20 03:26:29;;;;;;;30.42;2.95;;;;;;;5.70;100.00;102946.97;5099002;28;20032;-78
2021/12/20 03:28:56;;;;;;;19.67;2.85;;;;;;;5.68;100.00;102930.25;5087361;28;20042;-78
2021/12/20 03:31:22;;;;;;;27.13;3.70;;;;;;;5.66;100.00;102937.09;5086355;28;20037;-77
2021/12/20 03:33:47;;;;;;;23.05;3.28;;;;;;;5.66;100.00;102939.72;5102494;28;20460;-78
2021/12/20 03:36:14;;;;;;;19.58;3.55;;;;;;;5.65;100.00;102936.16;5105837;28;20035;-77
2021/12/20 03:38:39;;;;;;;19.73;2.92;;;;;;;5.67;100.00;102942.44;5108068;28;20043;-77
2021/12/20 03:41:05;;;;;;;16.83;2.33;;;;;;;5.65;100.00;102941.41;5105564;28;20106;-77
2021/12/20 03:43:31;;;;;;;30.63;3.20;;;;;;;5.64;100.00;102939.56;5085900;28;20035;-78
2021/12/20 03:45:58;;;;;;;19.67;3.13;;;;;;;5.63;100.00;102935.19;5103421;28;20191;-78
2021/12/20 03:48:26;;;;;;;23.08;2.63;;;;;;;5.62;100.00;102932.47;5089083;28;20023;-76
2021/12/20 03:50:52;;;;;;;19.90;2.28;;;;;;;5.62;100.00;102927.25;5106836;28;20492;-77
2021/12/20 03:53:18;;;;;;;12.95;2.80;;;;;;;5.61;100.00;102928.91;5085610;28;20480;-77
2021/12/20 03:55:43;;;;;;;16.77;2.67;;;;;;;5.60;100.00;102929.72;5105321;28;20072;-77
2021/12/20 03:58:10;;;;;;;27.90;3.63;;;;;;;5.60;100.00;102926.22;5110282;28;20847;-77
2021/12/20 04:00:35;;;;;;;20.58;2.67;;;;;;;5.58;100.00;102931.31;5109496;28;20019;-77
2021/12/20 04:03:07;;;;;;;21.65;2.63;;;;;;;5.59;100.00;102927.94;5087028;28;20117;-76
2021/12/20 04:05:34;;;;;;;23.17;2.58;;;;;;;5.59;100.00;102933.16;5082236;28;20114;-77
2021/12/20 04:08:01;;;;;;;24.65;3.38;;;;;;;5.58;100.00;102931.31;5100513;28;20039;-77
2021/12/20 04:10:27;;;;;;;29.27;2.97;;;;;;;5.56;100.00;102943.34;5090417;28;20471;-78
2021/12/20 04:12:52;;;;;;;21.98;3.40;;;;;;;5.55;100.00;102941.56;5106079;28;20063;-77
2021/12/20 04:15:19;;;;;;;23.60;3.35;;;;;;;5.56;100.00;102932.91;5092924;28;20031;-77
2021/12/20 04:17:45;;;;;;;19.80;2.60;;;;;;;5.56;100.00;102932.91;5098557;28;20039;-77
2021/12/20 04:20:11;;;;;;;15.60;2.88;;;;;;;5.56;100.00;102928.59;5097800;28;20027;-77
2021/12/20 04:22:37;;;;;;;18.05;2.30;;;;;;;5.57;100.00;102929.50;5103503;28;20035;-77
2021/12/20 04:25:03;;;;;;;23.48;3.17;;;;;;;5.62;100.00;102928.13;5102356;28;20028;-78
2021/12/20 04:27:29;;;;;;;23.85;3.10;;;;;;;5.64;97.61;102916.06;5109720;28;20024;-77
2021/12/20 04:29:55;;;;;;;21.10;2.90;;;;;;;5.64;98.29;102921.28;5097883;28;20202;-77
2021/12/20 04:32:20;;;;;;;25.77;2.78;;;;;;;5.64;98.07;102925.63;5105092;28;20055;-78
2021/12/20 04:34:46;;;;;;;19.90;2.72;;;;;;;5.63;99.21;102935.19;5087477;28;20054;-77
2021/12/20 04:37:11;;;;;;;20.10;3.40;;;;;;;5.62;98.36;102933.34;5082460;28;20045;-76
2021/12/20 04:39:37;;;;;;;15.43;2.70;;;;;;;5.60;98.01;102924.50;5070393;28;20020;-77
2021/12/20 04:42:04;;;;;;;17.60;3.10;;;;;;;5.60;98.47;102921.88;5061391;28;20027;-78
2021/12/20 04:44:30;;;;;;;17.33;2.65;;;;;;;5.58;100.00;102927.00;5066555;28;20115;-77
2021/12/20 04:46:55;;;;;;;19.25;2.33;;;;;;;5.57;99.72;102929.50;5066127;28;20047;-77
2021/12/20 04:49:24;;;;;;;13.80;2.78;;;;;;;5.55;98.51;102923.28;5066858;28;20040;-78
2021/12/20 04:51:54;;;;;;;24.60;2.92;;;;;;;5.58;98.25;102927.00;5067925;28;20485;-79
2021/12/20 04:54:21;;;;;;;20.70;3.70;;;;;;;5.58;99.25;102931.31;5065490;28;20552;-77
2021/12/20 04:56:47;;;;;;;22.30;2.70;;;;;;;5.56;100.00;102940.75;5070728;28;20515;-76
2021/12/20 04:59:13;;;;;;;20.25;3.17;;;;;;;5.54;100.00;102939.75;5061536;28;20029;-77
2021/12/20 05:01:38;;;;;;;17.45;2.75;;;;;;;5.52;100.00;102930.88;5064662;28;20095;-77
2021/12/20 05:04:04;;;;;;;20.00;2.55;;;;;;;5.51;99.58;102923.88;5067119;28;20052;-78
2021/12/20 05:06:32;;;;;;;27.30;2.97;;;;;;;5.52;100.00;102936.09;5061080;28;20082;-77
2021/12/20 05:09:01;;;;;;;19.05;2.78;;;;;;;5.50;100.00;102941.22;5070366;28;20032;-78
2021/12/20 05:11:29;;;;;;;18.67;2.10;;;;;;;5.50;100.00;102937.72;5070823;28;20039;-77
2021/12/20 05:13:55;;;;;;;20.58;2.50;;;;;;;5.50;100.00;102927.28;5065798;28;20064;-77
2021/12/20 05:16:21;;;;;;;18.17;2.33;;;;;;;5.50;99.63;102927.28;5063413;28;20024;-79
2021/12/20 05:18:47;;;;;;;25.15;3.78;;;;;;;5.51;99.77;102929.09;5061490;28;20503;-76
2021/12/20 05:21:12;;;;;;;23.83;3.33;;;;;;;5.52;99.94;102931.81;5065519;28;20028;-76
2021/12/20 05:23:38;;;;;;;18.92;3.58;;;;;;;5.54;99.12;102937.13;5059586;28;20100;-78
2021/12/20 05:26:04;;;;;;;16.60;2.40;;;;;;;5.55;98.58;102941.56;5061680;28;20020;-78
2021/12/20 05:28:29;;;;;;;20.80;3.08;;;;;;;5.56;99.25;102938.13;5062723;28;20056;-78
2021/12/20 05:30:56;;;;;;;17.13;2.47;;;;;;;5.58;99.56;102939.16;5066011;28;20050;-79
2021/12/20 05:33:22;;;;;;;22.30;1.95;;;;;;;5.57;99.74;102947.78;5070672;28;20384;-77
2021/12/20 05:35:48;;;;;;;16.45;2.20;;;;;;;5.56;99.16;102948.56;5063191;28;20032;-76
2021/12/20 05:38:14;;;;;;;24.25;3.97;;;;;;;5.55;99.03;102941.56;5095841;28;20047;-77
2021/12/20 05:40:39;;;;;;;18.63;2.75;;;;;;;5.56;99.30;102943.34;5110391;28;20028;-77
2021/12/20 05:43:05;;;;;;;12.65;2.47;;;;;;;5.56;98.69;102945.97;5110479;28;20035;-77
2021/12/20 05:45:33;;;;;;;13.13;3.17;;;;;;;5.55;98.75;102946.78;5102792;28;20051;-77
2021/12/20 05:47:58;;;;;;;20.50;2.30;;;;;;;5.54;99.41;102951.09;5111297;28;20467;-77
2021/12/20 05:50:24;;;;;;;16.45;2.40;;;;;;;5.52;98.96;102941.31;5096725;28;20026;-77
2021/12/20 05:52:51;;;;;;;20.33;2.60;;;;;;;5.51;98.94;102949.97;5109361;28;20471;-77
2021/12/20 05:55:19;;;;;;;14.80;2.42;;;;;;;5.49;100.00;102942.00;5084104;28;20043;-77
2021/12/20 05:57:45;;;;;;;20.50;2.55;;;;;;;5.48;100.00;102949.72;5098921;28;20035;-77
2021/12/20 06:00:14;;;;;;;17.60;2.60;;;;;;;5.45;100.00;102945.19;5091582;28;20042;-77
2021/12/20 06:02:43;;;;;;;25.23;3.00;;;;;;;5.43;100.00;102945.91;5104021;28;20028;-77
2021/12/20 06:05:10;;;;;;;24.30;3.40;;;;;;;5.43;100.00;102949.41;5097417;28;20028;-77
2021/12/20 06:07:39;;;;;;;14.90;2.10;;;;;;;5.42;100.00;102954.53;5112127;28;20117;-78
2021/12/20 06:10:17;;;;;;;13.43;2.08;;;;;;;5.42;99.78;102941.47;5085285;28;20034;-78
2021/12/20 06:12:43;;;;;;;15.70;1.95;;;;;;;5.43;98.97;102948.53;5092951;28;20421;-77
2021/12/20 06:15:10;;;;;;;19.92;4.03;;;;;;;5.42;97.34;102938.88;5090806;28;20903;-77
2021/12/20 06:17:37;;;;;;;18.08;2.60;;;;;;;5.41;96.99;102943.16;5107870;28;20038;-78
2021/12/20 06:20:08;;;;;;;13.50;2.55;;;;;;;5.40;96.63;102951.81;5084672;28;20032;-77
2021/12/20 06:22:33;;;;;;;13.57;2.00;;;;;;;5.42;96.27;102949.31;5101391;28;20035;-77
2021/12/20 06:25:00;;;;;;;11.60;2.53;;;;;;;5.43;96.28;102945.91;5076363;28;20560;-77
2021/12/20 06:27:25;;;;;;;14.63;2.38;;;;;;;5.42;96.09;102938.88;5088971;28;20024;-77
2021/12/20 06:29:51;;;;;;;14.68;2.83;;;;;;;5.42;97.36;102942.38;5091081;28;20028;-76
2021/12/20 06:32:20;;;;;;;17.13;2.55;;;;;;;5.40;97.33;102951.81;5086194;28;20491;-77
2021/12/20 06:34:47;;;;;;;22.02;3.25;;;;;;;5.40;98.55;102942.28;5098070;28;20028;-76
2021/12/20 06:37:13;;;;;;;16.92;2.83;;;;;;;5.38;97.75;102943.84;5039325;28;1116562;-77
2021/12/20 06:39:38;;;;;;;18.50;2.97;;;;;;;5.37;95.95;102936.84;5061070;28;20714;-77
2021/12/20 06:42:04;;;;;;;12.40;1.40;;;;;;;5.39;94.64;102942.16;5084099;28;20396;-77
2021/12/20 06:44:30;;;;;;;12.70;2.25;;;;;;;5.40;95.74;102951.81;5070998;28;20108;-78
2021/12/20 06:46:56;;;;;;;11.57;2.10;;;;;;;5.38;96.76;102956.91;5054434;28;20025;-77
2021/12/20 06:49:22;;;;;;;11.43;2.38;;;;;;;5.38;96.45;102959.50;5062862;28;20025;-78
2021/12/20 06:51:48;;;;;;;14.10;1.75;;;;;;;5.37;96.20;102962.94;5062415;28;20036;-78
2021/12/20 06:54:16;;;;;;;18.63;2.55;;;;;;;5.38;97.63;102964.75;5061836;28;20032;-79
2021/12/20 06:56:43;;;;;;;15.77;2.53;;;;;;;5.37;96.16;102957.72;5060986;28;20035;-78
2021/12/20 06:59:09;;;;;;;15.38;3.42;;;;;;;5.37;96.52;102952.50;5071061;28;20020;-79
2021/12/20 07:01:36;;;;;;;12.70;2.13;;;;;;;5.37;96.50;102956.78;5060559;28;20024;-78
2021/12/20 07:04:02;;;;;;;9.60;1.88;;;;;;;5.36;97.82;102963.75;5063916;28;20040;-78
2021/12/20 07:06:28;;;;;;;12.63;2.22;;;;;;;5.35;97.02;102964.53;5059566;28;20036;-77
2021/12/20 07:08:55;;;;;;;21.73;3.95;;;;;;;5.36;96.83;102961.13;5070116;28;20037;-76
2021/12/20 07:11:21;;;;;;;10.90;1.77;;;;;;;5.34;95.49;102957.47;5061487;28;20035;-74
2021/12/20 07:13:47;;;;;;;15.57;2.25;;;;;;;5.36;96.02;102961.13;5055530;28;20028;-74
2021/12/20 07:16:14;;;;;;;15.63;2.10;;;;;;;5.38;95.87;102959.50;5061005;28;20032;-74
2021/12/20 07:18:39;;;;;;;18.58;2.10;;;;;;;5.42;93.79;102954.53;5079490;28;20028;-75
2021/12/20 07:21:05;;;;;;;9.27;1.98;;;;;;;5.44;93.43;102963.38;5056778;28;20537;-75
2021/12/20 07:23:30;;;;;;;13.10;1.58;;;;;;;5.45;93.32;102954.75;5056546;28;20021;-75
2021/12/20 07:25:56;;;;;;;21.00;2.30;;;;;;;5.45;93.60;102953.03;5063007;28;20388;-73
2021/12/20 07:28:22;;;;;;;5.22;1.58;;;;;;;5.47;93.59;102947.94;5070086;28;20025;-73
2021/12/20 07:30:49;;;;;;;12.50;1.80;;;;;;;5.46;93.90;102946.13;5054849;28;20446;-73
2021/12/20 07:33:15;;;;;;;13.40;1.92;;;;;;;5.46;93.19;102952.25;5054917;28;20468;-75
2021/12/20 07:35:42;;;;;;;14.88;1.52;;;;;;;5.46;92.76;102951.34;5059956;28;20386;-73
2021/12/20 07:38:12;;;;;;;12.40;1.50;;;;;;;5.47;93.19;102950.56;5054576;28;20179;-74
2021/12/20 07:40:38;;;;;;;9.80;1.95;;;;;;;5.47;94.15;102955.78;5059527;28;20087;-74
2021/12/20 07:43:03;;;;;;;13.13;1.27;;;;;;;5.46;94.34;102961.78;5069369;28;20068;-74
2021/12/20 07:45:30;;;;;;;10.23;1.35;;;;;;;5.46;94.14;102952.25;5061614;28;20495;-73
2021/12/20 07:47:56;;;;;;;11.25;1.63;;;;;;;5.48;94.00;102954.97;5069402;28;20020;-75
2021/12/20 07:50:22;;;;;;;6.18;1.58;;;;;;;5.47;94.46;102963.63;5061000;28;20031;-75
2021/12/20 07:52:48;;;;;;;6.40;1.30;;;;;;;5.45;93.41;102971.31;5065846;28;20070;-75
2021/12/20 07:55:14;;;;;;;13.13;2.63;;;;;;;5.42;92.52;102962.38;5054556;28;20420;-75
2021/12/20 07:57:39;;;;;;;10.13;1.70;;;;;;;5.42;93.70;102964.97;5057324;28;20465;-74
2021/12/20 08:00:07;;;;;;;12.30;1.58;;;;;;;5.39;94.85;102965.66;5068145;28;20033;-75
2021/12/20 08:02:32;;;;;;;11.38;1.90;;;;;;;5.38;96.05;102979.50;5062009;28;20031;-76
2021/12/20 08:04:58;;;;;;;15.73;2.33;;;;;;;5.32;96.68;102972.16;5080620;28;20469;-73
2021/12/20 08:07:24;;;;;;;12.38;2.95;;;;;;;5.29;96.77;102982.38;5059053;28;20060;-73
2021/12/20 08:09:50;;;;;;;18.42;3.63;;;;;;;5.26;96.99;102984.75;5057098;28;20025;-75
2021/12/20 08:12:17;;;;;;;16.52;3.78;;;;;;;5.24;97.65;102991.56;5059763;28;20155;-75
2021/12/20 08:14:43;;;;;;;16.83;4.53;;;;;;;5.24;99.04;102991.56;5062218;28;20519;-74
2021/12/20 08:17:08;;;;;;;13.20;3.90;;;;;;;5.22;98.28;102996.69;5053050;28;20166;-75
2021/12/20 08:19:34;;;;;;;10.88;3.72;;;;;;;5.22;98.37;102990.53;5060530;28;20052;-74
2021/12/20 08:22:01;;;;;;;15.68;4.00;;;;;;;5.23;100.00;103001.09;5058086;28;20510;-75
2021/12/20 08:24:26;;;;;;;16.75;4.10;;;;;;;5.23;100.00;103000.19;5058683;28;20032;-76
2021/12/20 08:26:53;;;;;;;16.98;4.18;;;;;;;5.23;100.00;103008.00;5058649;28;20477;-74
2021/12/20 08:29:19;;;;;;;12.60;3.45;;;;;;;5.22;99.15;103004.50;5060845;28;20548;-74
2021/12/20 08:31:44;;;;;;;7.05;2.47;;;;;;;5.25;98.68;103003.81;5057283;28;20119;-75
2021/12/20 08:34:10;;;;;;;10.50;2.63;;;;;;;5.29;98.88;103007.56;5060850;28;20071;-75
2021/12/20 08:36:36;;;;;;;16.08;3.08;;;;;;;5.31;98.76;102995.53;5057520;28;20025;-76
2021/12/20 08:39:08;;;;;;;16.63;3.75;;;;;;;5.33;98.78;103005.28;5100527;28;20059;-76
2021/12/20 08:41:33;;;;;;;14.95;3.88;;;;;;;5.36;99.26;103002.91;5103301;28;20019;-76
2021/12/20 08:43:58;;;;;;;14.27;3.30;;;;;;;5.39;99.26;102997.88;5105473;28;20193;-76
2021/12/20 08:46:24;;;;;;;19.58;3.50;;;;;;;5.42;99.63;102998.94;5100921;28;20058;-76
2021/12/20 08:48:52;;;;;;;18.80;3.55;;;;;;;5.47;100.00;103005.41;5105693;28;20032;-76
2021/12/20 08:51:18;;;;;;;16.58;2.88;;;;;;;5.47;100.00;103003.69;5086794;28;20028;-76
2021/12/20 08:53:43;;;;;;;12.82;2.60;;;;;;;5.51;100.00;103008.31;5086403;28;20082;-75
2021/12/20 08:56:09;;;;;;;12.38;2.55;;;;;;;5.54;100.00;103003.31;5080122;28;20504;-74
2021/12/20 08:58:35;;;;;;;14.02;2.97;;;;;;;5.58;100.00;103014.91;5088933;28;20027;-75
2021/12/20 09:01:01;;;;;;;21.67;3.22;;;;;;;5.58;100.00;103015.78;5099655;28;20020;-75
2021/12/20 09:03:28;;;;;;;14.85;3.13;;;;;;;5.65;100.00;103021.47;5100850;28;20040;-75
2021/12/20 09:05:54;;;;;;;7.78;2.30;;;;;;;5.64;100.00;103024.88;5088600;28;20399;-76
2021/12/20 09:08:21;;;;;;;18.35;3.25;;;;;;;5.64;100.00;103025.78;5085196;28;20028;-74
2021/12/20 09:10:47;;;;;;;19.50;3.45;;;;;;;5.66;100.00;103018.97;5100947;28;20019;-74
2021/12/20 09:13:12;;;;;;;16.77;3.53;;;;;;;5.66;100.00;103021.56;5097839;28;20032;-73
2021/12/20 09:15:39;;;;;;;18.60;2.80;;;;;;;5.67;100.00;103026.00;5097765;28;20025;-73
2021/12/20 09:18:05;;;;;;;13.70;2.22;;;;;;;5.71;100.00;103025.44;5094401;28;20039;-74
2021/12/20 09:20:31;;;;;;;19.38;2.40;;;;;;;5.70;100.00;103021.00;5096392;28;20106;-74
2021/12/20 09:23:07;;;;;;;11.00;2.00;;;;;;;5.71;100.00;103027.13;5097146;28;20054;-74
2021/12/20 09:25:35;;;;;;;10.30;2.65;;;;;;;5.71;100.00;103028.03;5077501;28;20114;-74
2021/12/20 09:28:04;;;;;;;12.60;2.28;;;;;;;5.76;100.00;103027.47;5094689;27;20084;-73
2021/12/20 09:30:31;;;;;;;18.42;3.22;;;;;;;5.77;100.00;103031.91;5103726;27;20020;-73
2021/12/20 09:32:56;;;;;;;13.70;2.28;;;;;;;5.77;100.00;103021.44;5096617;28;20045;-73
2021/12/20 09:35:22;;;;;;;18.35;2.42;;;;;;;5.82;100.00;103014.81;5103062;28;20107;-74
2021/12/20 09:37:51;;;;;;;13.02;2.28;;;;;;;5.87;99.90;103019.59;5107064;27;20051;-75
2021/12/20 09:40:18;;;;;;;17.27;2.80;;;;;;;5.86;99.94;103017.78;5106010;28;20040;-74
2021/12/20 09:42:50;;;;;;;15.38;2.78;;;;;;;5.89;98.24;103015.38;5105308;27;20486;-74
2021/12/20 09:45:23;;;;;;;14.23;2.08;;;;;;;5.95;98.76;103017.50;5090615;28;20034;-74
2021/12/20 09:47:50;;;;;;;11.85;2.20;;;;;;;5.95;100.00;103022.75;5104505;28;20023;-74
2021/12/20 09:50:17;;;;;;;7.50;1.77;;;;;;;6.00;99.80;103020.50;5105058;28;20455;-74
2021/12/20 09:52:44;;;;;;;10.15;2.20;;;;;;;6.01;97.85;103023.22;5105408;27;20024;-74
2021/12/20 09:55:11;;;;;;;9.43;1.48;;;;;;;6.07;96.96;103026.25;5108300;28;20034;-75
2021/12/20 09:57:37;;;;;;;9.00;1.67;;;;;;;6.14;97.35;103024.97;5098855;28;20035;-74
2021/12/20 10:00:08;;;;;;;8.13;1.60;;;;;;;6.21;96.75;103018.47;5086522;28;20065;-75
2021/12/20 10:02:33;;;;;;;12.00;3.03;;;;;;;6.25;96.72;103028.34;5098870;28;20479;-75
2021/12/20 10:04:59;;;;;;;9.73;2.03;;;;;;;6.28;96.42;103023.34;5105909;28;20043;-73
2021/12/20 10:07:27;;;;;;;12.43;2.13;;;;;;;6.37;97.05;103026.56;5082261;28;20482;-73
2021/12/20 10:09:53;;;;;;;8.63;1.33;;;;;;;6.48;97.02;103031.63;5080188;28;20032;-75
2021/12/20 10:12:25;;;;;;;9.77;1.55;;;;;;;6.48;95.88;103026.41;5099173;28;20479;-76
2021/12/20 10:14:56;;;;;;;9.13;1.60;;;;;;;6.60;96.39;103027.25;5085734;28;20027;-75
2021/12/20 10:17:22;;;;;;;7.63;1.40;;;;;;;6.72;96.19;103035.91;5098322;28;20043;-75
2021/12/20 10:19:49;;;;;;;11.40;1.63;;;;;;;6.72;95.03;103028.06;5100633;28;20031;-73
2021/12/20 10:22:28;;;;;;;8.68;1.90;;;;;;;6.74;93.93;103029.09;5105376;28;20027;-75
2021/12/20 10:24:58;;;;;;;7.68;2.10;;;;;;;6.79;93.86;103028.50;5107359;28;20059;-75
2021/12/20 10:27:33;;;;;;;10.45;1.90;;;;;;;6.81;94.42;103029.50;5085120;28;20508;-78
2021/12/20 10:30:20;;;;;;;8.05;1.67;;;;;;;6.83;92.89;103013.09;5082393;28;20031;-74
2021/12/20 10:32:46;;;;;;;10.57;2.47;;;;;;;6.96;93.20;103021.75;5104442;28;20128;-75
2021/12/20 10:35:27;;;;;;;11.13;2.10;;;;;;;7.03;93.05;103018.75;5091614;28;20047;-75
2021/12/20 10:37:59;;;;;;;9.10;1.77;;;;;;;7.07;92.89;103016.44;5078779;28;20044;-75
2021/12/20 10:40:25;;;;;;;13.70;2.33;;;;;;;7.14;91.56;103019.47;5066709;28;20037;-75
2021/12/20 10:42:53;;;;;;;14.55;1.83;;;;;;;7.13;91.83;103025.50;5058686;28;20035;-74
2021/12/20 10:45:20;;;;;;;9.27;1.60;;;;;;;7.16;92.77;103021.38;5059074;28;20069;-75
2021/12/20 10:47:50;;;;;;;12.38;2.10;;;;;;;7.12;91.31;103023.69;5068554;28;20500;-75
2021/12/20 10:50:42;;;;;;;11.48;1.85;;;;;;;7.20;93.24;103027.72;5065385;28;20028;-75
2021/12/20 10:53:11;;;;;;;11.05;1.98;;;;;;;7.19;92.03;103031.13;5064918;28;20151;-74
2021/12/20 10:55:42;;;;;;;7.10;2.10;;;;;;;7.19;93.47;103039.91;5060988;28;20078;-75
2021/12/20 10:58:34;;;;;;;8.93;1.75;;;;;;;7.16;92.78;103025.69;5067196;28;20032;-75
2021/12/20 11:01:17;;;;;;;9.35;2.33;;;;;;;7.10;91.75;103028.81;5066699;28;20033;-76
2021/12/20 11:03:53;;;;;;;12.70;2.03;;;;;;;7.05;93.10;103030.22;5062898;28;20040;-76
2021/12/20 11:11:30;;;;;;;3.95;0.98;;;;;;;7.13;93.17;103020.28;5067132;28;20043;-76
2021/12/20 11:13:58;;;;;;;7.63;1.70;;;;;;;7.13;92.71;103025.50;5065026;28;20115;-75
2021/12/20 11:16:38;;;;;;;8.77;1.80;;;;;;;7.07;92.06;103024.28;5064960;28;20389;-75
2021/12/20 11:19:06;;;;;;;12.73;2.45;;;;;;;6.99;92.60;103022.88;5057757;28;20094;-75
2021/12/20 11:21:32;;;;;;;8.32;1.73;;;;;;;6.96;91.86;103020.06;5061281;28;20024;-75
2021/12/20 11:24:01;;;;;;;5.15;1.17;;;;;;;6.97;92.10;103024.47;5058521;28;20035;-76
2021/12/20 11:26:27;;;;;;;12.82;2.08;;;;;;;6.87;93.18;103017.72;5057947;28;20021;-75
2021/12/20 11:28:58;;;;;;;10.40;1.58;;;;;;;6.89;93.47;103020.44;5060272;28;20381;-74
2021/12/20 11:31:26;;;;;;;15.38;1.50;;;;;;;6.91;92.58;103014.50;5061430;28;20067;-75
2021/12/20 11:33:52;;;;;;;6.75;1.60;;;;;;;6.96;92.72;103012.22;5067952;28;20052;-75
2021/12/20 11:36:18;;;;;;;9.65;1.58;;;;;;;7.04;93.68;103015.31;5061929;28;20015;-74
2021/12/20 11:38:43;;;;;;;12.63;1.33;;;;;;;7.01;90.54;103012.50;5061915;28;20044;-74
2021/12/20 11:41:09;;;;;;;8.35;1.17;;;;;;;6.99;89.41;103007.16;5060066;28;20037;-75
2021/12/20 11:43:35;;;;;;;5.95;1.42;;;;;;;6.96;87.32;103001.75;5060635;28;20309;-75
2021/12/20 11:46:07;;;;;;;3.20;1.35;;;;;;;7.04;88.61;103005.78;5057759;28;20032;-75